createdAt,value
2022-11-23T00:07:27.085Z,99954.00
2022-11-23T00:15:01.080Z,99943.44
2022-11-23T00:22:37.138Z,99957.59
2022-11-23T00:30:12.229Z,99946.25
2022-11-23T00:37:47.369Z,99964.69
2022-11-23T00:45:22.756Z,99975.88
2022-11-23T00:52:57.815Z,99981.81
2022-11-23T01:00:31.595Z,99981.63
2022-11-23T01:08:07.501Z,99974.59
2022-11-23T01:15:49.600Z,99967.75
2022-11-23T01:23:26.358Z,99967.94
2022-11-23T01:31:05.791Z,99977.66
2022-11-23T01:38:42.261Z,99970.03
2022-11-23T01:46:16.417Z,99986.75
2022-11-23T01:53:55.493Z,99982.63
2022-11-23T02:01:29.713Z,99981.97
2022-11-23T02:09:05.041Z,99988.19
2022-11-23T02:16:39.190Z,99980.47
2022-11-23T02:24:21.998Z,99980.53
2022-11-23T02:31:58.361Z,99969.25
2022-11-23T02:39:38.019Z,99966.56
2022-11-23T02:47:13.591Z,99969.06
2022-11-23T02:54:48.225Z,99970.72
2022-11-23T03:02:23.652Z,99983.66
2022-11-23T03:09:57.339Z,99987.00
2022-11-23T03:17:32.696Z,99994.03
2022-11-23T03:25:07.462Z,100000.97
2022-11-23T03:32:42.627Z,100000.72
2022-11-23T03:40:16.734Z,99998.16
2022-11-23T03:47:51.935Z,99994.72
2022-11-23T03:55:25.752Z,99994.59
2022-11-23T04:03:00.922Z,99992.81
2022-11-23T04:10:34.749Z,99999.66
2022-11-23T04:18:09.898Z,100004.91
2022-11-23T04:25:44.781Z,99994.47
2022-11-23T04:33:20.228Z,100001.31
2022-11-23T04:40:54.489Z,99995.31
2022-11-23T04:48:29.668Z,100011.97
2022-11-23T04:56:03.867Z,100001.44
2022-11-23T05:03:38.952Z,100005.66
2022-11-23T05:11:12.716Z,100010.97
2022-11-23T05:18:47.905Z,99997.75
2022-11-23T05:26:22.350Z,100006.47
2022-11-23T05:33:58.420Z,100004.44
2022-11-23T05:41:32.404Z,99998.91
2022-11-23T05:49:07.870Z,99990.91
2022-11-23T05:56:41.804Z,100002.41
2022-11-23T06:04:17.311Z,100003.41
2022-11-23T06:11:51.067Z,100003.22
2022-11-23T06:19:26.288Z,100021.66
2022-11-23T06:27:00.091Z,100009.19
2022-11-23T06:34:35.483Z,100016.75
2022-11-23T06:42:37.662Z,100021.09
2022-11-23T06:50:06.298Z,100028.03
2022-11-23T06:57:40.122Z,100024.38
2022-11-23T07:05:15.392Z,100029.03
2022-11-23T07:12:49.199Z,100047.63
2022-11-23T07:20:24.385Z,100051.88
2022-11-23T07:27:58.772Z,100053.59
2022-11-23T07:35:34.103Z,100058.97
2022-11-23T07:43:08.363Z,100066.47
2022-11-23T07:50:43.627Z,100070.41
2022-11-23T07:58:17.271Z,100072.53
2022-11-23T08:05:53.197Z,100072.00
2022-11-23T08:13:27.045Z,100083.06
2022-11-23T08:21:02.349Z,100085.38
2022-11-23T08:28:37.944Z,100079.50
2022-11-23T08:36:13.154Z,100073.59
2022-11-23T08:43:47.054Z,100083.91
2022-11-23T08:51:23.212Z,100084.63
2022-11-23T08:58:57.157Z,100089.72
2022-11-23T09:06:34.353Z,100090.22
2022-11-23T09:14:08.506Z,100085.69
2022-11-23T09:21:43.784Z,100088.66
2022-11-23T09:29:32.022Z,100081.38
2022-11-23T09:37:07.398Z,100079.72
2022-11-23T09:45:04.870Z,100068.16
2022-11-23T09:52:44.718Z,100070.72
2022-11-23T10:00:22.214Z,100073.63
2022-11-23T10:08:07.559Z,100067.63
2022-11-23T10:15:54.604Z,100068.97
2022-11-23T10:23:41.015Z,100058.88
2022-11-23T10:31:17.529Z,100057.63
2022-11-23T10:38:59.351Z,100048.06
2022-11-23T10:46:41.204Z,100035.34
2022-11-23T10:54:23.045Z,100036.56
2022-11-23T11:02:14.969Z,100046.72
2022-11-23T11:09:55.523Z,100044.59
2022-11-23T11:17:32.512Z,100047.44
2022-11-23T11:25:09.135Z,100030.09
2022-11-23T11:32:51.221Z,100022.31
2022-11-23T11:40:31.389Z,100026.88
2022-11-23T11:48:10.931Z,100031.66
2022-11-23T11:55:53.984Z,100034.38
2022-11-23T12:03:39.485Z,100033.66
2022-11-23T12:11:15.045Z,100028.47
2022-11-23T12:19:02.481Z,100031.19
2022-11-23T12:26:47.448Z,100030.28
2022-11-23T12:34:38.015Z,100030.25
2022-11-23T12:42:18.438Z,100026.69
2022-11-23T12:49:56.425Z,100032.25
2022-11-23T12:57:37.851Z,100030.72
2022-11-23T13:05:53.139Z,100022.75
2022-11-23T13:13:59.588Z,100026.19
2022-11-23T13:21:40.749Z,100025.31
2022-11-23T13:29:58.831Z,100027.25
2022-11-23T13:38:07.747Z,100032.50
2022-11-23T13:45:43.099Z,100038.75
2022-11-23T13:53:24.228Z,100034.44
2022-11-23T14:01:00.681Z,100032.88
2022-11-23T14:08:37.938Z,100035.38
2022-11-23T14:16:20.341Z,100032.69
2022-11-23T14:24:30.732Z,100040.56
2022-11-23T14:32:28.759Z,100043.91
2022-11-23T14:40:13.840Z,100043.69
2022-11-23T14:47:49.743Z,100040.72
2022-11-23T14:55:25.371Z,100051.00
2022-11-23T15:03:20.755Z,100060.38
2022-11-23T15:11:04.262Z,100052.09
2022-11-23T15:18:39.805Z,100064.13
2022-11-23T15:26:34.569Z,100068.41
2022-11-23T15:34:15.896Z,100078.63
2022-11-23T15:41:50.399Z,100094.25
2022-11-23T15:49:26.199Z,100085.19
2022-11-23T15:57:00.012Z,100095.44
2022-11-23T16:04:37.817Z,100106.72
2022-11-23T16:12:27.262Z,100110.94
2022-11-23T16:20:05.584Z,100112.59
2022-11-23T16:27:39.470Z,100106.19
2022-11-23T16:35:19.945Z,100113.13
2022-11-23T16:42:54.614Z,100108.53
2022-11-23T16:50:34.846Z,100113.66
2022-11-23T16:58:14.986Z,100120.47
2022-11-23T17:05:50.095Z,100114.84
2022-11-23T17:13:26.264Z,100112.66
2022-11-23T17:21:01.711Z,100115.97
2022-11-23T17:28:36.230Z,100117.56
2022-11-23T17:36:11.936Z,100123.53
2022-11-23T17:43:46.209Z,100123.34
2022-11-23T17:51:22.205Z,100141.72
2022-11-23T17:58:56.099Z,100148.53
2022-11-23T18:06:31.535Z,100141.06
2022-11-23T18:14:05.416Z,100147.06
2022-11-23T18:21:40.649Z,100147.69
2022-11-23T18:29:17.201Z,100160.69
2022-11-23T18:36:52.834Z,100158.75
2022-11-23T18:44:26.788Z,100162.84
2022-11-23T18:52:01.857Z,100164.50
2022-11-23T19:07:32.131Z,100183.94
2022-11-23T19:15:07.828Z,100183.69
2022-11-23T19:22:43.166Z,100180.13
2022-11-23T19:30:17.743Z,100195.78
2022-11-23T19:37:53.049Z,100196.44
2022-11-23T19:45:27.085Z,100201.50
2022-11-23T19:53:12.315Z,100204.00
2022-11-23T20:00:47.086Z,100209.09
2022-11-23T20:08:22.318Z,100214.03
2022-11-23T20:15:56.227Z,100217.38
2022-11-23T20:23:31.716Z,100219.03
2022-11-23T20:31:06.035Z,100228.50
2022-11-23T20:38:42.385Z,100239.78
2022-11-23T20:46:26.378Z,100238.56
2022-11-23T20:54:11.785Z,100249.97
2022-11-23T21:01:45.631Z,100246.25
2022-11-23T21:09:22.021Z,100257.59
2022-11-23T21:16:58.576Z,100262.50
2022-11-23T21:24:35.565Z,100279.19
2022-11-23T21:32:09.724Z,100279.94
2022-11-23T21:39:51.150Z,100290.28
2022-11-23T21:47:26.611Z,100292.56
2022-11-23T21:55:01.738Z,100308.50
2022-11-23T22:02:35.682Z,100312.09
2022-11-23T22:10:11.357Z,100319.16
2022-11-23T22:17:45.218Z,100319.81
2022-11-23T22:25:20.707Z,100323.94
2022-11-23T22:32:54.709Z,100332.44
2022-11-23T22:40:32.902Z,100332.19
2022-11-23T22:48:07.729Z,100343.56
2022-11-23T22:55:42.944Z,100347.72
2022-11-23T23:03:16.903Z,100343.38
2022-11-23T23:10:54.012Z,100351.28
2022-11-23T23:18:28.028Z,100354.81
2022-11-23T23:26:03.633Z,100355.38
2022-11-23T23:33:38.256Z,100358.84
2022-11-23T23:41:14.648Z,100368.22
2022-11-23T23:48:48.611Z,100368.66
2022-11-23T23:56:25.698Z,100371.09
